Time;durP1;ratioP1;P1;durP2;ratioP2;P2;SDS_P1;SDS_P2;PMS_P1;PMS_P2;Temp;Humidity;BMP_temperature;BMP_pressure;BME280_temperature;BME280_humidity;BME280_pressure;Samples;Min_cycle;Max_cycle;Signal;HPM_P1;HPM_P2
2022/05/03 00:01:56;;;;;;;13.80;6.13;;;;;;;7.14;nan;101701.63;5062013;28;20099;-48
2022/05/03 00:04:22;;;;;;;13.98;6.28;;;;;;;7.11;nan;101696.72;5061490;28;20132;-47
2022/05/03 00:07:10;;;;;;;17.02;7.05;;;;;;;7.00;nan;101695.44;5063729;28;20116;-48
2022/05/03 00:10:03;;;;;;;11.10;6.55;;;;;;;7.01;nan;101706.97;5058918;28;20401;-47
2022/05/03 00:12:52;;;;;;;13.38;6.95;;;;;;;6.98;nan;101703.66;5062468;28;20305;-47
2022/05/03 00:15:20;;;;;;;12.30;6.65;;;;;;;6.93;nan;101697.28;5062152;28;20096;-47
2022/05/03 00:17:48;;;;;;;10.35;6.43;;;;;;;6.89;nan;101699.53;5063284;28;20032;-46
2022/05/03 00:20:14;;;;;;;12.50;6.45;;;;;;;6.87;nan;101695.44;5055169;28;20028;-47
2022/05/03 00:22:41;;;;;;;16.23;7.00;;;;;;;6.83;nan;101697.69;5060648;28;20028;-47
2022/05/03 00:25:07;;;;;;;10.30;6.20;;;;;;;6.76;nan;101696.81;5062513;28;20020;-47
2022/05/03 00:27:34;;;;;;;13.02;6.30;;;;;;;6.79;nan;101693.75;5063849;28;20032;-47
2022/05/03 00:29:59;;;;;;;10.82;5.97;;;;;;;6.80;nan;101695.41;5062194;28;20497;-47
2022/05/03 00:32:26;;;;;;;9.90;6.65;;;;;;;6.80;nan;101692.72;5058772;28;20074;-48
2022/05/03 00:34:53;;;;;;;13.20;6.28;;;;;;;6.81;nan;101697.03;5055704;28;20024;-46
2022/05/03 00:37:19;;;;;;;14.25;7.00;;;;;;;6.79;nan;101695.59;5061126;28;20047;-47
2022/05/03 00:39:45;;;;;;;12.38;6.43;;;;;;;6.76;nan;101699.50;5058933;28;20025;-47
2022/05/03 00:42:19;;;;;;;14.48;6.78;;;;;;;6.68;nan;101688.19;5056330;28;20028;-47
2022/05/03 00:45:22;;;;;;;10.57;6.30;;;;;;;6.63;nan;101689.59;5061353;28;20486;-47
2022/05/03 00:47:53;;;;;;;9.63;6.40;;;;;;;6.66;nan;101691.88;5056951;28;20040;-47
2022/05/03 00:50:57;;;;;;;10.77;6.10;;;;;;;6.61;nan;101690.81;5062885;28;20081;-47
2022/05/03 00:54:03;;;;;;;11.05;6.35;;;;;;;6.51;nan;101685.06;5031010;28;20047;-47
2022/05/03 00:56:28;;;;;;;15.27;6.90;;;;;;;6.54;nan;101687.31;5055727;28;20051;-47
2022/05/03 00:59:21;;;;;;;12.07;6.82;;;;;;;6.45;nan;101697.31;5059926;28;20025;-46
2022/05/03 01:01:46;;;;;;;11.02;6.10;;;;;;;6.48;nan;101702.25;5061883;28;20032;-47
2022/05/03 01:04:32;;;;;;;9.60;6.15;;;;;;;6.45;nan;101696.47;5061536;28;20149;-47
2022/05/03 01:07:09;;;;;;;10.70;6.00;;;;;;;6.44;nan;101692.19;5055092;28;20032;-47
2022/05/03 01:09:41;;;;;;;10.20;6.65;;;;;;;6.45;nan;101701.81;5061049;28;20032;-47
2022/05/03 01:12:23;;;;;;;12.40;6.43;;;;;;;6.39;nan;101698.09;5060565;28;20089;-47
2022/05/03 01:15:09;;;;;;;11.88;6.95;;;;;;;6.35;nan;101695.00;5065708;28;20482;-50
2022/05/03 01:17:42;;;;;;;10.60;6.80;;;;;;;6.39;nan;101694.63;5064860;28;20036;-49
2022/05/03 01:20:11;;;;;;;12.18;6.32;;;;;;;6.40;nan;101701.59;5063376;28;20496;-47
2022/05/03 01:22:48;;;;;;;11.77;6.72;;;;;;;6.36;nan;101693.19;5063644;28;20032;-47
2022/05/03 01:25:14;;;;;;;13.43;7.22;;;;;;;6.39;nan;101691.94;5057963;28;20032;-48
2022/05/03 01:27:58;;;;;;;11.43;6.85;;;;;;;6.38;nan;101691.13;5066696;28;20047;-47
2022/05/03 01:30:28;;;;;;;14.63;6.18;;;;;;;6.36;nan;101688.66;5065860;28;20028;-49
2022/05/03 01:33:07;;;;;;;10.57;6.28;;;;;;;6.31;nan;101688.44;5063019;28;20024;-47
2022/05/03 01:35:38;;;;;;;11.32;6.45;;;;;;;6.29;nan;101687.00;5060305;28;20105;-47
2022/05/03 01:38:17;;;;;;;14.07;7.47;;;;;;;6.28;nan;101685.34;5062200;28;20669;-48
2022/05/03 01:41:04;;;;;;;9.18;5.85;;;;;;;6.24;nan;101686.75;5062428;28;20216;-47
2022/05/03 01:44:14;;;;;;;11.82;6.38;;;;;;;6.08;nan;101682.56;5064418;28;20044;-47
2022/05/03 01:46:40;;;;;;;12.77;6.60;;;;;;;6.10;nan;101682.38;4987030;28;20046;-47
2022/05/03 01:52:21;;;;;;;9.23;6.22;;;;;;;5.97;nan;101681.28;5065217;28;20064;-47
2022/05/03 01:54:56;;;;;;;9.20;5.75;;;;;;;5.97;nan;101678.63;5064070;28;21192;-48
2022/05/03 01:57:46;;;;;;;13.60;6.03;;;;;;;5.91;nan;101678.56;5063773;28;20044;-46
2022/05/03 02:00:12;;;;;;;7.95;5.45;;;;;;;5.93;nan;101682.69;5064118;28;20044;-47
2022/05/03 02:02:53;;;;;;;9.75;5.70;;;;;;;5.90;nan;101688.38;5065080;28;20032;-51
2022/05/03 02:05:28;;;;;;;9.77;6.65;;;;;;;5.90;nan;101683.06;5064145;28;20028;-50
2022/05/03 02:07:58;;;;;;;8.80;6.40;;;;;;;5.87;nan;101678.09;5064425;28;20078;-50
2022/05/03 02:10:36;;;;;;;9.30;6.03;;;;;;;5.81;nan;101676.22;5062866;28;20508;-49
2022/05/03 02:13:15;;;;;;;10.68;6.63;;;;;;;5.73;nan;101682.50;5064342;28;20043;-48
2022/05/03 02:15:44;;;;;;;10.75;5.35;;;;;;;5.75;nan;101683.16;5063854;28;20060;-48
2022/05/03 02:18:25;;;;;;;8.75;5.80;;;;;;;5.70;nan;101676.75;5064745;28;20020;-49
2022/05/03 02:20:56;;;;;;;7.63;5.88;;;;;;;5.71;nan;101673.91;5062993;28;20375;-51
2022/05/03 02:24:01;;;;;;;11.52;6.80;;;;;;;5.66;nan;101672.84;5060702;28;20040;-52
2022/05/03 02:26:43;;;;;;;12.30;6.93;;;;;;;5.68;nan;101676.13;5060941;28;20467;-48
2022/05/03 02:29:17;;;;;;;11.85;6.90;;;;;;;5.67;nan;101674.47;5066936;28;20027;-49
2022/05/03 02:32:00;;;;;;;12.98;7.13;;;;;;;5.65;nan;101669.34;5065224;28;20033;-48
2022/05/03 02:34:46;;;;;;;10.07;6.38;;;;;;;5.59;nan;101662.16;5062425;28;20024;-51
2022/05/03 02:37:22;;;;;;;13.13;6.45;;;;;;;5.62;nan;101666.28;5062136;28;20336;-49
2022/05/03 02:40:00;;;;;;;13.38;6.60;;;;;;;5.60;nan;101671.78;5065631;28;20471;-50
2022/05/03 02:42:27;;;;;;;10.60;6.13;;;;;;;5.57;nan;101669.50;5062589;28;20560;-49
2022/05/03 02:44:59;;;;;;;11.18;6.00;;;;;;;5.55;nan;101668.84;5065312;28;20032;-49
2022/05/03 02:47:30;;;;;;;9.32;6.18;;;;;;;5.53;nan;101667.41;5064893;28;20031;-51
2022/05/03 02:50:21;;;;;;;12.23;6.10;;;;;;;5.54;nan;101672.53;5066672;28;20039;-48
2022/05/03 02:53:16;;;;;;;14.75;5.97;;;;;;;5.52;nan;101676.41;5062394;28;20036;-53
2022/05/03 02:55:54;;;;;;;10.73;6.78;;;;;;;5.56;nan;101673.16;5057008;28;20025;-52
2022/05/03 02:58:28;;;;;;;13.13;7.03;;;;;;;5.58;nan;101671.16;5061456;28;20024;-48
2022/05/03 03:04:05;;;;;;;11.65;7.10;;;;;;;5.64;nan;101672.22;5057189;28;20105;-50
2022/05/03 03:06:37;;;;;;;9.45;6.40;;;;;;;5.66;nan;101671.00;5063087;28;20113;-47
2022/05/03 03:09:03;;;;;;;12.73;6.53;;;;;;;5.69;nan;101667.13;5064990;28;20021;-51
2022/05/03 03:11:37;;;;;;;13.18;6.68;;;;;;;5.71;nan;101668.56;5060843;28;20090;-48
2022/05/03 03:14:10;;;;;;;11.32;6.80;;;;;;;5.70;nan;101669.59;5060621;28;20050;-48
2022/05/03 03:16:43;;;;;;;13.75;7.63;;;;;;;5.69;nan;101665.28;5064335;28;20036;-48
2022/05/03 03:19:43;;;;;;;13.32;7.22;;;;;;;5.66;nan;101668.34;5061215;28;20017;-49
2022/05/03 03:22:13;;;;;;;17.42;7.00;;;;;;;5.65;nan;101671.19;5037695;28;20044;-49
2022/05/03 03:24:40;;;;;;;16.55;6.97;;;;;;;5.66;nan;101672.84;5061996;28;20107;-51
2022/05/03 03:27:08;;;;;;;23.33;7.65;;;;;;;5.66;nan;101672.84;5057529;28;20070;-52
2022/05/03 03:29:36;;;;;;;15.63;6.93;;;;;;;5.65;nan;101669.34;5066532;28;20031;-50
2022/05/03 03:32:05;;;;;;;14.75;7.10;;;;;;;5.63;nan;101663.41;5061588;28;20378;-50
2022/05/03 03:34:32;;;;;;;21.08;7.07;;;;;;;5.61;nan;101664.63;5063038;28;20587;-47
2022/05/03 03:37:02;;;;;;;18.55;6.65;;;;;;;5.58;nan;101668.50;5060826;28;20045;-51
2022/05/03 03:39:29;;;;;;;18.83;6.90;;;;;;;5.56;nan;101670.50;5063759;28;20453;-48
2022/05/03 03:41:58;;;;;;;18.80;7.63;;;;;;;5.52;nan;101668.44;5062962;28;20082;-49
2022/05/03 03:44:24;;;;;;;16.48;8.20;;;;;;;5.50;nan;101662.47;5058790;28;20129;-48
2022/05/03 03:46:50;;;;;;;14.05;7.22;;;;;;;5.49;nan;101669.63;5062587;28;20028;-51
2022/05/03 03:49:16;;;;;;;33.55;9.70;;;;;;;5.47;nan;101659.19;5059477;28;20106;-48
2022/05/03 03:51:42;;;;;;;32.92;9.57;;;;;;;5.44;nan;101662.25;5059016;28;20040;-53
2022/05/03 03:54:08;;;;;;;29.17;9.48;;;;;;;5.43;nan;101667.75;5062984;28;20032;-48
2022/05/03 03:56:34;;;;;;;25.85;9.80;;;;;;;5.42;nan;101671.44;5060382;28;20020;-48
2022/05/03 03:59:02;;;;;;;24.90;8.13;;;;;;;5.41;nan;101669.78;5062016;28;20466;-54
2022/05/03 04:01:28;;;;;;;30.95;8.88;;;;;;;5.43;nan;101678.38;5064053;28;20054;-51
2022/05/03 04:03:54;;;;;;;32.70;7.45;;;;;;;5.43;nan;101681.03;5063109;28;20024;-50
2022/05/03 04:06:20;;;;;;;24.33;8.43;;;;;;;5.45;nan;101685.16;5063050;28;20032;-50
2022/05/03 04:08:45;;;;;;;23.42;7.85;;;;;;;5.47;nan;101690.28;5060548;28;20017;-53
2022/05/03 04:11:17;;;;;;;19.95;7.95;;;;;;;5.47;nan;101688.44;5061741;28;20120;-50
2022/05/03 04:13:46;;;;;;;22.90;7.55;;;;;;;5.52;nan;101689.69;5064413;28;20070;-50
2022/05/03 04:16:12;;;;;;;17.08;7.85;;;;;;;5.56;nan;101690.94;5060822;28;20086;-48
2022/05/03 04:18:46;;;;;;;20.13;7.15;;;;;;;5.59;nan;101688.75;5060178;28;20021;-50
2022/05/03 04:21:16;;;;;;;10.38;6.72;;;;;;;5.61;nan;101696.53;5063503;28;20053;-51
2022/05/03 04:23:43;;;;;;;12.55;7.45;;;;;;;5.66;nan;101694.09;5061271;28;20170;-51
2022/05/03 04:26:11;;;;;;;11.05;6.63;;;;;;;5.74;nan;101701.94;5062446;28;20028;-50
2022/05/03 04:28:40;;;;;;;22.63;6.38;;;;;;;5.77;nan;101701.56;5061456;28;20020;-50
2022/05/03 04:31:06;;;;;;;13.02;7.28;;;;;;;5.84;nan;101706.94;5062909;28;20581;-48
2022/05/03 04:33:32;;;;;;;9.95;7.18;;;;;;;5.90;nan;101703.50;5061298;28;20119;-50
2022/05/03 04:35:57;;;;;;;10.43;7.30;;;;;;;5.98;nan;101706.03;5061817;28;20090;-51
2022/05/03 04:38:23;;;;;;;13.27;7.68;;;;;;;6.07;nan;101710.19;5062875;28;20028;-50
2022/05/03 04:40:49;;;;;;;13.07;6.65;;;;;;;6.16;nan;101701.06;5059156;28;20750;-51
2022/05/03 04:43:19;;;;;;;10.48;6.95;;;;;;;6.25;nan;101704.38;5060121;28;20074;-50
2022/05/03 04:45:44;;;;;;;13.02;6.82;;;;;;;6.36;nan;101704.63;5062145;28;20025;-50
2022/05/03 04:48:10;;;;;;;13.80;7.82;;;;;;;6.48;nan;101712.09;5068010;28;20031;-47
2022/05/03 04:50:35;;;;;;;14.57;7.65;;;;;;;6.57;nan;101709.03;5065954;28;20493;-48
2022/05/03 04:53:01;;;;;;;15.65;8.48;;;;;;;6.65;nan;101708.06;5063854;28;20504;-53
2022/05/03 04:55:27;;;;;;;34.53;10.45;;;;;;;6.75;nan;101713.00;5064003;28;20535;-49
2022/05/03 04:57:55;;;;;;;56.05;12.20;;;;;;;6.83;nan;101716.34;5065069;28;20035;-52
2022/05/03 05:00:21;;;;;;;46.75;11.65;;;;;;;6.93;nan;101711.44;5065453;28;20107;-49
2022/05/03 05:02:46;;;;;;;42.65;12.30;;;;;;;7.06;nan;101717.81;5063654;28;20100;-52
2022/05/03 05:05:12;;;;;;;33.20;11.07;;;;;;;7.19;nan;101715.19;5060612;28;20025;-49
2022/05/03 05:07:37;;;;;;;35.38;9.77;;;;;;;7.31;nan;101718.91;5064682;28;20458;-51
2022/05/03 05:12:47;;;;;;;20.17;10.45;;;;;;;7.55;nan;101718.34;5062437;28;20520;-51
2022/05/03 05:15:13;;;;;;;17.90;10.57;;;;;;;7.68;nan;101720.16;5063860;28;20055;-52
2022/05/03 05:17:38;;;;;;;19.25;8.98;;;;;;;7.80;nan;101709.69;5067681;28;20021;-49
2022/05/03 05:20:05;;;;;;;14.95;9.02;;;;;;;7.93;nan;101717.72;5065892;28;20115;-48
2022/05/03 05:22:30;;;;;;;12.13;8.07;;;;;;;8.05;nan;101721.38;5062816;28;20032;-51
2022/05/03 05:24:56;;;;;;;13.27;8.07;;;;;;;8.17;nan;101718.91;5063964;28;20028;-49
2022/05/03 05:27:21;;;;;;;13.13;8.15;;;;;;;8.31;nan;101719.69;5065003;28;20477;-50
2022/05/03 05:29:47;;;;;;;12.85;8.38;;;;;;;8.43;nan;101718.03;5068575;28;20025;-49
2022/05/03 05:32:12;;;;;;;15.65;8.40;;;;;;;8.57;nan;101719.63;5064301;28;20075;-51
2022/05/03 05:34:38;;;;;;;14.35;8.23;;;;;;;8.70;nan;101724.94;5064078;28;20023;-49
2022/05/03 05:37:03;;;;;;;12.52;6.75;;;;;;;8.83;nan;101715.22;5063688;28;20082;-48
2022/05/03 05:39:29;;;;;;;10.80;6.03;;;;;;;8.92;nan;101717.44;5065673;28;20035;-50
2022/05/03 05:41:56;;;;;;;8.98;5.40;;;;;;;9.07;nan;101717.97;5059739;28;20032;-50
2022/05/03 05:44:22;;;;;;;11.32;5.93;;;;;;;9.23;nan;101718.50;5064661;28;20067;-52
2022/05/03 05:46:48;;;;;;;8.35;5.03;;;;;;;9.36;nan;101724.59;5065645;28;20361;-49
2022/05/03 05:49:13;;;;;;;9.77;5.50;;;;;;;9.48;nan;101719.34;5064260;28;20024;-48
2022/05/03 05:51:39;;;;;;;6.78;4.05;;;;;;;9.59;nan;101718.66;5061488;28;20059;-51
2022/05/03 05:54:04;;;;;;;7.78;4.25;;;;;;;9.72;nan;101723.09;5061869;28;20024;-51
2022/05/03 05:56:30;;;;;;;7.57;3.95;;;;;;;9.86;nan;101727.28;5060321;28;20035;-50
2022/05/03 05:58:56;;;;;;;6.57;3.38;;;;;;;10.03;nan;101734.75;5062673;28;20100;-48
2022/05/03 06:01:26;;;;;;;4.82;3.35;;;;;;;10.19;nan;101728.84;5060565;28;20055;-48
2022/05/03 06:03:52;;;;;;;6.93;3.95;;;;;;;10.36;nan;101735.28;5062705;28;20021;-51
2022/05/03 06:06:17;;;;;;;3.63;2.83;;;;;;;10.41;nan;101729.25;5062526;28;20031;-52
2022/05/03 06:08:43;;;;;;;6.68;3.10;;;;;;;10.50;nan;101736.78;5062651;28;20032;-48
2022/05/03 06:11:09;;;;;;;6.15;2.55;;;;;;;10.63;nan;101735.81;5063794;28;20425;-53
2022/05/03 06:13:35;;;;;;;5.40;2.78;;;;;;;10.78;nan;101733.56;5061018;28;20034;-53
2022/05/03 06:16:08;;;;;;;5.25;2.97;;;;;;;10.88;nan;101730.34;5062833;28;20029;-51
2022/05/03 06:18:34;;;;;;;8.10;3.33;;;;;;;10.99;nan;101734.13;5057811;28;20024;-54
2022/05/03 06:21:01;;;;;;;3.80;2.80;;;;;;;11.13;nan;101741.78;5064391;28;20501;-52
2022/05/03 06:23:27;;;;;;;3.30;2.55;;;;;;;11.28;nan;101729.78;5065892;28;20039;-50
2022/05/03 06:25:52;;;;;;;4.22;2.85;;;;;;;11.42;nan;101728.56;5065986;28;20032;-50
2022/05/03 06:28:19;;;;;;;4.38;2.30;;;;;;;11.55;nan;101736.41;5066832;28;20024;-50
2022/05/03 06:30:44;;;;;;;7.07;2.78;;;;;;;11.59;nan;101736.78;5066207;28;20138;-49
2022/05/03 06:33:10;;;;;;;4.60;2.45;;;;;;;11.72;nan;101737.38;5064653;28;20378;-52
2022/05/03 06:35:35;;;;;;;6.88;2.80;;;;;;;11.87;nan;101733.47;5064291;28;20032;-53
2022/05/03 06:38:01;;;;;;;3.58;2.03;;;;;;;11.97;nan;101739.06;5066669;28;20033;-50
2022/05/03 06:40:27;;;;;;;7.63;2.70;;;;;;;12.06;nan;101741.19;5066554;28;20035;-50
2022/05/03 06:42:54;;;;;;;5.22;1.90;;;;;;;12.16;nan;101745.94;5066009;28;20067;-53
2022/05/03 06:45:20;;;;;;;5.20;2.38;;;;;;;12.22;nan;101738.84;5066789;28;20117;-54
2022/05/03 06:47:48;;;;;;;4.60;2.20;;;;;;;12.16;nan;101740.59;5061366;28;20490;-49
2022/05/03 06:50:14;;;;;;;5.75;2.30;;;;;;;12.27;nan;101742.47;5062903;28;20021;-49
2022/05/03 06:52:40;;;;;;;5.95;3.10;;;;;;;12.44;nan;101741.75;5063966;28;20028;-56
2022/05/03 06:55:06;;;;;;;5.18;2.42;;;;;;;12.63;nan;101735.97;5062182;28;20335;-50
2022/05/03 06:57:32;;;;;;;8.52;2.33;;;;;;;12.79;nan;101734.41;5065472;28;20024;-53
2022/05/03 07:00:01;;;;;;;5.60;2.92;;;;;;;12.94;nan;101732.03;5064941;28;20116;-51
2022/05/03 07:02:29;;;;;;;5.07;2.90;;;;;;;13.01;nan;101737.25;5065033;28;20552;-50
2022/05/03 07:04:55;;;;;;;3.55;2.65;;;;;;;13.08;nan;101737.91;5062321;28;20048;-56
2022/05/03 07:07:20;;;;;;;7.38;2.75;;;;;;;13.10;nan;101741.19;5063171;28;20437;-51
2022/05/03 07:09:46;;;;;;;3.90;2.55;;;;;;;13.05;nan;101743.78;5066429;28;20020;-48
2022/05/03 07:12:11;;;;;;;4.03;2.75;;;;;;;13.17;nan;101741.06;5061742;28;20371;-52
2022/05/03 07:14:37;;;;;;;8.20;3.13;;;;;;;13.21;nan;101742.22;5063697;28;20267;-54
2022/05/03 07:17:04;;;;;;;6.95;2.72;;;;;;;13.39;nan;101742.03;5063689;28;20056;-51
2022/05/03 07:24:58;;;;;;;8.15;2.83;;;;;;;13.65;nan;101745.97;5062205;28;20101;-53
2022/05/03 07:27:23;;;;;;;8.57;2.88;;;;;;;13.74;nan;101746.38;5061868;28;20025;-51
2022/05/03 07:29:49;;;;;;;4.40;2.33;;;;;;;13.85;nan;101743.63;5064302;28;20021;-49
2022/05/03 07:32:15;;;;;;;3.88;2.40;;;;;;;13.96;nan;101749.97;5066147;28;20048;-50
2022/05/03 07:34:40;;;;;;;3.83;2.55;;;;;;;14.07;nan;101751.75;5067311;28;20647;-56
2022/05/03 07:37:06;;;;;;;3.28;1.70;;;;;;;14.05;nan;101743.09;5066148;28;20044;-50
2022/05/03 07:39:31;;;;;;;3.28;2.22;;;;;;;14.12;nan;101745.63;5066223;28;20020;-52
2022/05/03 07:41:57;;;;;;;5.07;2.63;;;;;;;14.16;nan;101755.66;5065413;28;21345;-49
2022/05/03 07:44:23;;;;;;;5.43;2.00;;;;;;;14.23;nan;101760.88;5064767;28;20112;-49
2022/05/03 07:46:49;;;;;;;7.93;1.75;;;;;;;14.36;nan;101757.00;5060695;28;20090;-52
2022/05/03 07:49:14;;;;;;;4.43;2.30;;;;;;;14.43;nan;101749.56;5063402;28;20024;-50
2022/05/03 07:51:41;;;;;;;3.47;1.60;;;;;;;14.54;nan;101750.53;5064450;28;20040;-52
2022/05/03 07:54:08;;;;;;;3.50;2.17;;;;;;;14.70;nan;101758.56;5063420;28;20471;-51
2022/05/03 07:56:33;;;;;;;6.07;2.13;;;;;;;14.69;nan;101753.44;5065927;28;20024;-53
2022/05/03 07:58:59;;;;;;;3.33;1.95;;;;;;;14.45;nan;101763.66;5066725;28;20500;-49
2022/05/03 08:01:24;;;;;;;3.55;2.20;;;;;;;14.56;nan;101765.44;5078946;22;20031;-46
2022/05/03 08:03:50;;;;;;;3.25;2.10;;;;;;;14.62;nan;101764.41;5043407;28;20790;-46
2022/05/03 08:06:15;;;;;;;2.15;1.38;;;;;;;14.53;nan;101771.28;5049573;28;20029;-46
2022/05/03 08:08:41;;;;;;;4.55;1.80;;;;;;;14.43;nan;101761.19;5043025;28;20036;-46
2022/05/03 08:11:06;;;;;;;3.45;1.15;;;;;;;14.55;nan;101761.09;5038971;28;20428;-47
2022/05/03 08:13:32;;;;;;;3.42;2.03;;;;;;;14.69;nan;101759.63;5038382;28;20052;-50
2022/05/03 08:15:57;;;;;;;3.40;1.40;;;;;;;14.92;nan;101765.88;5039782;28;21487;-48
2022/05/03 08:18:23;;;;;;;1.40;1.20;;;;;;;15.13;nan;101762.31;5041840;28;20033;-47
2022/05/03 08:20:49;;;;;;;2.97;1.40;;;;;;;15.10;nan;101763.66;5041918;28;20104;-48
2022/05/03 08:23:14;;;;;;;1.52;1.33;;;;;;;15.16;nan;101761.00;5046629;28;20070;-49
2022/05/03 08:25:40;;;;;;;1.85;1.40;;;;;;;15.32;nan;101766.31;5044221;28;20020;-49
2022/05/03 08:28:05;;;;;;;2.60;1.77;;;;;;;15.25;nan;101772.97;5040755;28;20017;-49
2022/05/03 08:30:31;;;;;;;3.58;1.45;;;;;;;15.35;nan;101763.09;5043911;28;20036;-49
2022/05/03 08:32:57;;;;;;;1.83;1.40;;;;;;;15.57;nan;101752.22;5045872;28;20335;-48
2022/05/03 08:35:24;;;;;;;1.92;1.50;;;;;;;15.53;nan;101763.78;5042755;28;20035;-48
2022/05/03 08:43:34;;;;;;;2.92;1.80;;;;;;;16.00;nan;101761.25;5033729;28;20052;-49
2022/05/03 08:46:01;;;;;;;3.10;1.55;;;;;;;16.11;nan;101759.41;5047398;28;20025;-47
2022/05/03 08:48:30;;;;;;;2.53;1.52;;;;;;;16.32;nan;101758.47;5045886;28;20029;-48
2022/05/03 08:50:55;;;;;;;1.83;1.58;;;;;;;16.52;nan;101760.50;5047158;28;20067;-47
2022/05/03 08:53:21;;;;;;;3.67;1.75;;;;;;;16.64;nan;101769.19;5045497;28;20048;-47
2022/05/03 08:55:50;;;;;;;2.67;1.50;;;;;;;16.62;nan;101772.16;5044176;28;20025;-46
2022/05/03 08:58:18;;;;;;;2.42;1.60;;;;;;;16.71;nan;101766.28;5039308;28;20498;-50
2022/05/03 09:00:43;;;;;;;2.42;1.90;;;;;;;16.94;nan;101762.31;5042828;28;20135;-46
2022/05/03 09:03:09;;;;;;;4.82;2.13;;;;;;;17.17;nan;101759.94;5044127;28;20028;-47
2022/05/03 09:05:35;;;;;;;5.32;2.45;;;;;;;17.45;nan;101768.66;5042348;28;20393;-49
2022/05/03 09:08:01;;;;;;;5.15;2.85;;;;;;;17.37;nan;101764.56;5050084;28;20044;-48
2022/05/03 09:10:31;;;;;;;9.75;2.75;;;;;;;17.44;nan;101769.75;5039600;28;20033;-47
2022/05/03 09:13:20;;;;;;;4.25;2.35;;;;;;;17.50;nan;101765.94;5043853;28;20107;-49
2022/05/03 09:15:48;;;;;;;5.70;2.95;;;;;;;17.60;nan;101765.97;5044632;28;20025;-47
2022/05/03 09:18:27;;;;;;;5.38;2.40;;;;;;;17.63;nan;101764.59;5041120;28;20375;-50
2022/05/03 09:23:49;;;;;;;4.32;2.35;;;;;;;17.20;nan;101764.00;5045289;28;20096;-49
2022/05/03 09:26:23;;;;;;;4.72;2.65;;;;;;;17.13;nan;101761.56;5049611;28;20394;-47
2022/05/03 09:28:49;;;;;;;3.10;2.10;;;;;;;17.26;nan;101760.22;5047161;28;20056;-47
2022/05/03 09:31:39;;;;;;;2.60;2.05;;;;;;;17.05;nan;101764.75;5051600;28;20481;-47
2022/05/03 09:34:19;;;;;;;3.20;2.40;;;;;;;17.22;nan;101759.94;5046907;28;20557;-49
2022/05/03 09:36:47;;;;;;;4.10;2.88;;;;;;;17.37;nan;101761.03;5047806;28;20034;-49
2022/05/03 09:39:29;;;;;;;4.57;2.67;;;;;;;17.44;nan;101765.13;5045349;28;20021;-49
2022/05/03 09:42:14;;;;;;;28.98;15.25;;;;;;;17.63;nan;101767.31;5047750;28;20165;-47
2022/05/03 09:45:00;;;;;;;4.63;2.80;;;;;;;17.40;nan;101764.03;5043220;28;20037;-48
2022/05/03 09:47:33;;;;;;;4.10;2.10;;;;;;;17.39;nan;101767.00;5044399;28;20390;-47
2022/05/03 09:49:59;;;;;;;4.85;2.10;;;;;;;17.51;nan;101765.69;5044406;28;20025;-47
2022/05/03 09:52:36;;;;;;;2.95;2.10;;;;;;;17.83;nan;101759.22;5043152;28;20498;-47
2022/05/03 09:55:07;;;;;;;5.68;2.70;;;;;;;17.40;nan;101763.22;5042379;28;20504;-48
2022/05/03 09:57:38;;;;;;;4.20;2.55;;;;;;;17.43;nan;101760.00;5047023;28;20040;-47
2022/05/03 10:00:06;;;;;;;4.13;2.80;;;;;;;17.58;nan;101762.69;5042913;28;20111;-50
2022/05/03 10:02:32;;;;;;;5.53;2.50;;;;;;;17.92;nan;101756.75;5041805;28;20593;-47
2022/05/03 10:04:58;;;;;;;3.80;2.00;;;;;;;18.20;nan;101752.66;5047498;28;20064;-47
2022/05/03 10:07:26;;;;;;;4.25;2.20;;;;;;;18.20;nan;101756.19;5037107;28;20410;-48
2022/05/03 10:09:52;;;;;;;3.95;2.42;;;;;;;18.17;nan;101769.50;5045270;28;20027;-47
2022/05/03 10:12:18;;;;;;;5.20;3.10;;;;;;;18.45;nan;101758.00;5042466;28;20030;-47
2022/05/03 10:14:46;;;;;;;5.13;2.60;;;;;;;18.93;nan;101761.13;5044285;28;20028;-51
2022/05/03 10:20:43;;;;;;;3.55;2.05;;;;;;;19.13;nan;101758.28;5044299;28;20031;-47
2022/05/03 10:23:02;;;;;;;4.35;2.13;;;;;;;19.34;nan;101753.53;5036553;28;20044;-51
2022/05/03 10:25:49;;;;;;;4.25;2.60;;;;;;;19.35;nan;101757.06;5038864;28;20418;-51
2022/05/03 10:28:15;;;;;;;7.32;3.22;;;;;;;19.22;nan;101759.31;5041083;28;20037;-48
2022/05/03 10:31:07;;;;;;;5.50;3.10;;;;;;;19.02;nan;101746.66;5043758;28;20114;-48
2022/05/03 10:33:32;;;;;;;4.13;2.70;;;;;;;18.94;nan;101754.59;5045636;28;20025;-48
2022/05/03 10:36:00;;;;;;;6.72;3.47;;;;;;;18.99;nan;101749.94;5045386;28;20036;-47
2022/05/03 10:38:37;;;;;;;3.30;2.35;;;;;;;19.42;nan;101747.50;5043847;28;20517;-48
2022/05/03 10:41:04;;;;;;;3.60;2.08;;;;;;;19.70;nan;101750.56;5039726;28;20028;-48
2022/05/03 10:43:29;;;;;;;3.13;2.05;;;;;;;20.01;nan;101743.75;5036356;28;20060;-47
2022/05/03 10:46:08;;;;;;;2.70;2.00;;;;;;;20.26;nan;101744.59;5045033;28;20390;-49
2022/05/03 10:48:36;;;;;;;3.05;2.03;;;;;;;20.29;nan;101747.56;5045991;28;20086;-48
2022/05/03 10:51:05;;;;;;;4.90;1.98;;;;;;;20.29;nan;101744.00;5043546;28;20057;-49
2022/05/03 10:53:34;;;;;;;4.05;2.65;;;;;;;20.29;nan;101752.16;5041733;28;20079;-48
2022/05/03 10:56:08;;;;;;;2.65;2.30;;;;;;;20.29;nan;101747.56;5037872;28;20035;-49
2022/05/03 10:58:38;;;;;;;;;;;;;;;19.53;nan;101749.03;5044395;28;20289;-51
2022/05/03 11:01:31;;;;;;;5.07;1.80;;;;;;;19.56;nan;101747.69;5045798;28;20427;-48
2022/05/03 11:03:59;;;;;;;4.93;2.28;;;;;;;19.80;nan;101747.78;5040508;28;20025;-47
2022/05/03 11:06:25;;;;;;;3.25;1.73;;;;;;;19.70;nan;101745.13;5038398;28;20060;-47
2022/05/03 11:11:49;;;;;;;3.13;2.33;;;;;;;19.99;nan;101745.16;5046278;28;20024;-49
2022/05/03 11:14:24;;;;;;;5.32;2.25;;;;;;;20.11;nan;101735.50;5049403;28;20116;-48
2022/05/03 11:17:03;;;;;;;2.92;1.85;;;;;;;19.97;nan;101737.28;5042194;28;20025;-47
2022/05/03 11:19:29;;;;;;;2.47;1.60;;;;;;;19.75;nan;101726.03;5043608;28;20062;-49
2022/05/03 11:21:58;;;;;;;3.90;1.70;;;;;;;20.02;nan;101720.91;5043767;28;20028;-47
2022/05/03 11:24:27;;;;;;;2.38;1.50;;;;;;;19.99;nan;101726.91;5043341;28;20542;-47
2022/05/03 11:26:58;;;;;;;2.33;1.20;;;;;;;20.15;nan;101722.13;5039286;28;20112;-47
2022/05/03 11:29:29;;;;;;;3.30;1.15;;;;;;;19.80;nan;101715.94;5041453;28;20021;-49
2022/05/03 11:31:55;;;;;;;2.53;1.17;;;;;;;19.90;nan;101717.75;5041685;28;20120;-49
2022/05/03 11:34:21;;;;;;;2.35;1.05;;;;;;;19.82;nan;101721.09;5050729;28;20080;-50
2022/05/03 11:36:50;;;;;;;1.42;1.00;;;;;;;20.22;nan;101712.50;5039374;28;20021;-48
2022/05/03 11:39:16;;;;;;;2.53;1.40;;;;;;;19.97;nan;101720.16;5039044;28;20122;-49
2022/05/03 11:41:42;;;;;;;3.55;0.65;;;;;;;19.99;nan;101720.66;5045391;28;20064;-47
2022/05/03 11:44:08;;;;;;;4.05;1.05;;;;;;;20.05;nan;101723.03;5036834;28;20028;-49
2022/05/03 11:46:34;;;;;;;2.55;1.30;;;;;;;20.30;nan;101721.97;5035435;28;20032;-50
2022/05/03 11:49:02;;;;;;;1.50;1.20;;;;;;;20.10;nan;101720.25;5041781;28;20055;-47
2022/05/03 11:57:11;;;;;;;2.33;1.30;;;;;;;20.40;nan;101715.59;5037083;28;20093;-50
2022/05/03 11:59:38;;;;;;;1.30;1.20;;;;;;;20.11;nan;101721.91;5034325;28;20095;-50
2022/05/03 12:02:22;;;;;;;2.00;1.25;;;;;;;20.34;nan;101708.59;5040916;28;20021;-47
2022/05/03 12:05:11;;;;;;;4.07;1.80;;;;;;;20.43;nan;101710.41;5042241;28;20032;-49
2022/05/03 12:07:41;;;;;;;3.05;1.50;;;;;;;20.85;nan;101716.94;5041902;28;20033;-47
2022/05/03 12:10:35;;;;;;;2.33;1.40;;;;;;;20.97;nan;101716.50;5038792;28;20025;-52
2022/05/03 12:13:15;;;;;;;2.78;2.35;;;;;;;21.03;nan;101715.34;5041202;28;20067;-48
2022/05/03 12:15:47;;;;;;;2.85;1.70;;;;;;;21.28;nan;101709.53;5042841;28;20018;-52
2022/05/03 12:18:23;;;;;;;1.63;1.40;;;;;;;21.50;nan;101708.09;5038064;28;20040;-49
2022/05/03 12:20:52;;;;;;;2.15;1.50;;;;;;;21.31;nan;101703.47;5031624;28;20082;-49
2022/05/03 12:23:19;;;;;;;5.03;1.40;;;;;;;21.14;nan;101695.00;5031054;28;20567;-50
2022/05/03 12:25:47;;;;;;;1.70;0.95;;;;;;;21.34;nan;101700.16;5031849;28;20162;-52
2022/05/03 12:28:13;;;;;;;4.22;1.15;;;;;;;21.46;nan;101701.63;5025252;28;20493;-47
2022/05/03 12:30:39;;;;;;;2.65;1.40;;;;;;;21.38;nan;101694.94;5033296;28;20025;-51
2022/05/03 12:33:07;;;;;;;3.50;1.30;;;;;;;21.17;nan;101702.56;5028190;28;20036;-50